createdAt,value
2018-04-10T00:00:35.931Z,16.58
2018-04-10T00:03:04.252Z,16.49
2018-04-10T00:05:32.580Z,16.40
2018-04-10T00:08:00.919Z,16.38
2018-04-10T00:10:29.248Z,16.39
2018-04-10T00:12:57.592Z,16.31
2018-04-10T00:15:25.915Z,16.22
2018-04-10T00:17:54.260Z,16.19
2018-04-10T00:20:22.586Z,16.19
2018-04-10T00:22:50.931Z,16.18
2018-04-10T00:25:19.256Z,16.14
2018-04-10T00:27:47.590Z,16.08
2018-04-10T00:30:15.911Z,16.08
2018-04-10T00:32:44.256Z,16.03
2018-04-10T00:35:12.589Z,15.89
2018-04-10T00:37:40.932Z,15.82
2018-04-10T00:40:09.256Z,15.76
2018-04-10T00:42:37.604Z,15.69
2018-04-10T00:45:05.923Z,15.68
2018-04-10T00:47:34.276Z,15.69
2018-04-10T00:50:02.605Z,15.67
2018-04-10T00:52:30.944Z,15.65
2018-04-10T00:54:59.271Z,15.66
2018-04-10T00:57:27.616Z,15.70
2018-04-10T00:59:55.940Z,15.70
2018-04-10T01:02:24.284Z,15.67
2018-04-10T01:04:52.607Z,15.58
2018-04-10T01:07:20.956Z,15.44
2018-04-10T01:09:49.277Z,15.36
2018-04-10T01:12:17.620Z,15.28
2018-04-10T01:14:45.948Z,15.26
2018-04-10T01:17:14.288Z,15.26
2018-04-10T01:19:42.639Z,15.27
2018-04-10T01:22:10.983Z,15.30
2018-04-10T01:24:39.307Z,15.28
2018-04-10T01:27:07.651Z,15.28
2018-04-10T01:29:35.999Z,15.24
2018-04-10T01:32:04.359Z,15.19
2018-04-10T01:34:32.681Z,15.13
2018-04-10T01:37:01.008Z,15.13
2018-04-10T01:39:29.352Z,15.17
2018-04-10T01:41:57.681Z,15.18
2018-04-10T01:44:26.028Z,15.15
2018-04-10T01:46:54.362Z,15.14
2018-04-10T01:49:22.707Z,15.17
2018-04-10T01:51:51.040Z,15.22
2018-04-10T01:54:19.392Z,15.21
2018-04-10T01:56:47.721Z,15.22
2018-04-10T01:59:16.063Z,15.22
2018-04-10T02:01:44.387Z,15.24
2018-04-10T02:04:12.728Z,15.31
2018-04-10T02:06:41.062Z,15.28
2018-04-10T02:09:09.409Z,15.14
2018-04-10T02:11:37.733Z,14.91
2018-04-10T02:14:06.080Z,14.77
2018-04-10T02:16:34.419Z,14.63
2018-04-10T02:19:02.769Z,14.51
2018-04-10T02:21:31.092Z,14.39
2018-04-10T02:23:59.448Z,14.33
2018-04-10T02:26:27.780Z,14.29
2018-04-10T02:28:56.128Z,14.23
2018-04-10T02:31:24.459Z,14.16
2018-04-10T02:33:52.822Z,14.10
2018-04-10T02:36:21.152Z,14.15
2018-04-10T02:38:49.505Z,14.21
2018-04-10T02:41:17.832Z,14.22
2018-04-10T02:43:46.180Z,14.24
2018-04-10T02:46:14.495Z,14.29
2018-04-10T02:48:42.840Z,14.32
2018-04-10T02:51:11.168Z,14.36
2018-04-10T02:53:39.512Z,14.38
2018-04-10T02:56:07.836Z,14.42
2018-04-10T02:58:36.193Z,14.47
2018-04-10T03:01:04.515Z,14.49
2018-04-10T03:03:32.860Z,14.49
2018-04-10T03:06:01.186Z,14.53
2018-04-10T03:08:29.537Z,14.58
2018-04-10T03:10:57.860Z,14.65
2018-04-10T03:13:26.212Z,14.66
2018-04-10T03:15:54.537Z,14.68
2018-04-10T03:18:22.862Z,14.58
2018-04-10T03:20:51.205Z,14.45
2018-04-10T03:23:19.529Z,14.40
2018-04-10T03:25:47.872Z,14.38
2018-04-10T03:28:16.209Z,14.34
2018-04-10T03:30:44.558Z,14.33
2018-04-10T03:33:12.888Z,14.34
2018-04-10T03:35:41.235Z,14.37
2018-04-10T03:38:09.560Z,14.41
2018-04-10T03:40:37.914Z,14.46
2018-04-10T03:43:06.236Z,14.48
2018-04-10T03:45:34.589Z,14.51
2018-04-10T03:48:02.911Z,14.48
2018-04-10T03:50:31.265Z,14.46
2018-04-10T03:52:59.592Z,14.53
2018-04-10T03:55:27.935Z,14.56
2018-04-10T03:57:56.260Z,14.51
2018-04-10T04:00:24.608Z,14.45
2018-04-10T04:02:52.941Z,14.44
2018-04-10T04:05:21.288Z,14.41
2018-04-10T04:07:49.611Z,14.36
2018-04-10T04:10:17.960Z,14.29
2018-04-10T04:12:46.280Z,14.24
2018-04-10T04:15:14.624Z,14.21
2018-04-10T04:17:42.953Z,14.16
2018-04-10T04:20:23.124Z,14.08
2018-04-10T04:22:51.459Z,14.03
2018-04-10T04:25:19.812Z,14.00
2018-04-10T04:27:48.142Z,14.01
2018-04-10T04:30:16.492Z,14.01
2018-04-10T04:32:44.816Z,14.03
2018-04-10T04:35:13.172Z,13.96
2018-04-10T04:37:41.496Z,13.87
2018-04-10T04:40:09.857Z,13.93
2018-04-10T04:42:38.172Z,13.92
2018-04-10T04:45:06.531Z,13.95
2018-04-10T04:47:34.865Z,13.98
2018-04-10T04:50:03.224Z,14.05
2018-04-10T04:52:31.540Z,14.11
2018-04-10T04:54:59.892Z,14.12
2018-04-10T04:57:28.211Z,14.15
2018-04-10T04:59:56.560Z,14.18
2018-04-10T05:02:24.900Z,14.19
2018-04-10T05:04:53.260Z,14.15
2018-04-10T05:07:21.583Z,14.13
2018-04-10T05:09:49.939Z,14.08
2018-04-10T05:12:18.264Z,14.09
2018-04-10T05:14:46.620Z,14.13
2018-04-10T05:17:14.947Z,14.15
2018-04-10T05:19:43.304Z,14.24
2018-04-10T05:22:11.636Z,14.34
2018-04-10T05:24:39.992Z,14.36
2018-04-10T05:27:08.329Z,14.34
2018-04-10T05:29:36.655Z,14.34
2018-04-10T05:32:05.012Z,14.43
2018-04-10T05:34:33.340Z,14.50
2018-04-10T05:37:01.692Z,14.56
2018-04-10T05:39:30.019Z,14.66
2018-04-10T05:41:58.373Z,14.79
2018-04-10T05:44:26.716Z,14.87
2018-04-10T05:46:55.069Z,14.95
2018-04-10T05:49:23.404Z,14.94
2018-04-10T05:51:51.765Z,14.85
2018-04-10T05:54:20.092Z,14.77
2018-04-10T05:56:48.452Z,14.71
2018-04-10T05:59:16.783Z,14.65
2018-04-10T06:01:45.137Z,14.72
2018-04-10T06:04:13.460Z,14.71
2018-04-10T06:06:41.806Z,14.65
2018-04-10T06:09:10.144Z,14.63
2018-04-10T06:11:38.500Z,14.67
2018-04-10T06:14:06.840Z,14.77
2018-04-10T06:16:35.184Z,14.90
2018-04-10T06:19:03.529Z,14.94
2018-04-10T06:21:31.884Z,15.03
2018-04-10T06:24:00.962Z,15.13
2018-04-10T06:26:29.309Z,15.36
2018-04-10T06:28:57.641Z,15.68
2018-04-10T06:31:25.997Z,16.03
2018-04-10T06:33:54.336Z,16.18
2018-04-10T06:36:23.684Z,16.34
2018-04-10T06:38:52.025Z,16.73
2018-04-10T06:41:20.367Z,16.98
2018-04-10T06:43:48.709Z,16.95
2018-04-10T06:46:17.066Z,16.88
2018-04-10T06:48:45.393Z,16.91
2018-04-10T06:51:13.744Z,16.98
2018-04-10T06:53:42.081Z,17.07
2018-04-10T06:56:10.432Z,16.85
2018-04-10T06:58:38.759Z,16.86
2018-04-10T07:01:07.116Z,17.03
2018-04-10T07:03:35.453Z,17.21
2018-04-10T07:06:03.814Z,17.24
2018-04-10T07:08:32.174Z,17.06
2018-04-10T07:11:00.624Z,17.05
2018-04-10T07:13:28.964Z,16.86
2018-04-10T07:15:57.308Z,16.89
2018-04-10T07:18:25.639Z,16.84
2018-04-10T07:20:54.147Z,16.84
2018-04-10T07:23:22.689Z,16.90
2018-04-10T07:25:51.003Z,16.85
2018-04-10T07:28:19.368Z,16.81
2018-04-10T07:30:47.708Z,16.84
2018-04-10T07:33:16.062Z,16.79
2018-04-10T07:35:44.393Z,16.71
2018-04-10T07:38:12.740Z,16.65
2018-04-10T07:40:41.071Z,16.70
2018-04-10T07:43:09.856Z,16.72
2018-04-10T07:45:38.189Z,16.84
2018-04-10T07:48:06.540Z,16.71
2018-04-10T07:50:34.864Z,16.68
2018-04-10T07:53:03.208Z,16.74
2018-04-10T07:55:31.541Z,16.82
2018-04-10T07:57:59.899Z,16.83
2018-04-10T08:00:28.235Z,16.95
2018-04-10T08:02:56.587Z,17.01
2018-04-10T08:05:24.922Z,17.10
2018-04-10T08:07:53.273Z,17.17
2018-04-10T08:10:21.596Z,17.20
2018-04-10T08:12:49.949Z,17.19
2018-04-10T08:15:18.283Z,17.14
2018-04-10T08:17:46.629Z,17.14
2018-04-10T08:20:14.959Z,17.22
2018-04-10T08:22:44.187Z,17.33
2018-04-10T08:25:12.524Z,17.30
2018-04-10T08:27:40.872Z,17.34
2018-04-10T08:30:09.206Z,17.48
2018-04-10T08:32:37.556Z,17.41
2018-04-10T08:35:05.888Z,17.48
2018-04-10T08:37:34.240Z,17.59
2018-04-10T08:40:02.563Z,17.69
2018-04-10T08:42:30.912Z,17.81
2018-04-10T08:44:59.251Z,17.82
2018-04-10T08:47:27.596Z,17.84
2018-04-10T08:49:55.928Z,17.91
2018-04-10T08:52:24.280Z,17.86
2018-04-10T08:54:52.604Z,17.86
2018-04-10T08:57:20.956Z,17.90
2018-04-10T08:59:49.288Z,18.11
2018-04-10T09:02:18.516Z,18.21
2018-04-10T09:04:46.844Z,18.12
2018-04-10T09:07:15.196Z,18.15
2018-04-10T09:09:43.532Z,18.18
2018-04-10T09:12:11.884Z,18.28
2018-04-10T09:14:40.222Z,18.47
2018-04-10T09:17:08.569Z,18.56
2018-04-10T09:19:36.898Z,18.64
2018-04-10T09:22:05.244Z,18.71
2018-04-10T09:24:33.576Z,18.79
2018-04-10T09:27:01.977Z,18.90
2018-04-10T09:29:30.296Z,19.07
2018-04-10T09:31:58.630Z,19.12
2018-04-10T09:34:26.985Z,19.11
2018-04-10T09:36:55.310Z,19.13
2018-04-10T09:39:23.664Z,19.24
2018-04-10T09:41:52.865Z,19.23
2018-04-10T09:44:21.224Z,19.34
2018-04-10T09:46:49.557Z,19.39
2018-04-10T09:49:17.912Z,19.41
2018-04-10T09:51:46.246Z,19.40
2018-04-10T09:54:14.601Z,19.50
2018-04-10T09:56:42.937Z,19.58
2018-04-10T09:59:11.289Z,19.56
2018-04-10T10:01:39.753Z,19.63
2018-04-10T10:04:08.944Z,19.69
2018-04-10T10:06:37.281Z,19.67
2018-04-10T10:09:06.440Z,19.66
2018-04-10T10:11:34.772Z,19.70
2018-04-10T10:14:03.133Z,19.76
2018-04-10T10:16:32.409Z,19.78
2018-04-10T10:19:00.765Z,19.81
2018-04-10T10:21:29.096Z,19.95
2018-04-10T10:23:57.460Z,20.01
2018-04-10T10:26:25.793Z,19.97
2018-04-10T10:28:54.152Z,20.03
2018-04-10T10:31:22.484Z,20.00
2018-04-10T10:33:50.836Z,20.15
2018-04-10T10:36:19.168Z,20.13
2018-04-10T10:38:47.538Z,20.19
2018-04-10T10:41:15.868Z,20.10
2018-04-10T10:43:44.225Z,20.08
2018-04-10T10:46:12.556Z,20.11
2018-04-10T10:48:40.965Z,20.29
2018-04-10T10:51:09.352Z,20.33
2018-04-10T10:53:37.702Z,20.32
2018-04-10T10:56:06.040Z,20.35
2018-04-10T10:58:34.396Z,20.34
2018-04-10T11:01:02.779Z,20.41
2018-04-10T11:03:31.094Z,20.44
2018-04-10T11:05:59.429Z,20.59
2018-04-10T11:08:27.788Z,20.70
2018-04-10T11:10:56.117Z,20.66
2018-04-10T11:13:24.472Z,20.68
2018-04-10T11:15:52.797Z,20.74
2018-04-10T11:18:21.156Z,20.75
2018-04-10T11:20:49.497Z,20.76
2018-04-10T11:23:17.857Z,20.85
2018-04-10T11:25:46.193Z,21.00
2018-04-10T11:28:14.548Z,21.52
2018-04-10T11:30:42.881Z,21.46
2018-04-10T11:33:11.214Z,21.41
2018-04-10T11:35:39.572Z,21.46
2018-04-10T11:38:07.901Z,21.52
2018-04-10T11:40:36.309Z,21.49
2018-04-10T11:43:04.641Z,21.57
2018-04-10T11:45:32.992Z,21.69
2018-04-10T11:48:01.330Z,21.74
2018-04-10T11:50:29.681Z,21.78
2018-04-10T11:52:58.017Z,21.76
2018-04-10T11:55:26.368Z,21.85
2018-04-10T11:57:54.700Z,21.91
2018-04-10T12:00:23.126Z,21.96
2018-04-10T12:02:51.453Z,21.96
2018-04-10T12:05:19.804Z,21.96
2018-04-10T12:07:48.141Z,21.98
2018-04-10T12:10:16.492Z,21.97
2018-04-10T12:12:44.824Z,22.03
2018-04-10T12:15:13.173Z,22.11
2018-04-10T12:17:41.504Z,22.17
2018-04-10T12:20:10.744Z,22.30
2018-04-10T12:22:39.071Z,22.38
2018-04-10T12:25:07.430Z,22.45
2018-04-10T12:27:35.758Z,22.36
2018-04-10T12:30:04.116Z,22.41
2018-04-10T12:32:32.452Z,22.45
2018-04-10T12:35:00.809Z,22.50
2018-04-10T12:37:29.136Z,22.44
2018-04-10T12:39:57.651Z,22.45
2018-04-10T12:42:25.965Z,22.48
2018-04-10T12:44:54.316Z,22.41
2018-04-10T12:47:22.652Z,22.38
2018-04-10T12:49:51.000Z,22.42
2018-04-10T12:52:19.330Z,22.54
2018-04-10T12:54:47.680Z,22.63
2018-04-10T12:57:16.008Z,22.74
2018-04-10T12:59:45.083Z,22.73
2018-04-10T13:02:13.474Z,22.66
2018-04-10T13:04:41.773Z,22.78
2018-04-10T13:07:10.113Z,22.89
2018-04-10T13:09:38.465Z,22.79
2018-04-10T13:12:06.787Z,22.86
2018-04-10T13:14:35.140Z,22.91
2018-04-10T13:17:03.469Z,23.00
2018-04-10T13:19:31.821Z,22.94
2018-04-10T13:22:00.152Z,22.93
2018-04-10T13:24:28.495Z,23.02
2018-04-10T13:26:56.944Z,23.04
2018-04-10T13:29:25.334Z,23.10
2018-04-10T13:31:53.670Z,23.14
2018-04-10T13:34:21.994Z,23.14
2018-04-10T13:36:50.345Z,23.17
2018-04-10T13:39:19.396Z,23.10
2018-04-10T13:41:47.756Z,23.16
2018-04-10T13:44:16.089Z,23.21
2018-04-10T13:46:44.439Z,23.25
2018-04-10T13:49:12.773Z,23.29
2018-04-10T13:51:41.120Z,23.24
2018-04-10T13:54:09.447Z,23.28
2018-04-10T13:56:37.805Z,23.33
2018-04-10T13:59:06.144Z,23.35
2018-04-10T14:01:34.538Z,23.35
2018-04-10T14:04:02.886Z,23.32
2018-04-10T14:06:31.240Z,23.34
2018-04-10T14:08:59.572Z,23.44
2018-04-10T14:11:28.048Z,23.37
2018-04-10T14:13:56.368Z,23.66
2018-04-10T14:16:24.717Z,23.59
2018-04-10T14:18:53.058Z,23.60
2018-04-10T14:21:21.500Z,23.64
2018-04-10T14:23:49.833Z,23.61
2018-04-10T14:26:18.408Z,23.60
2018-04-10T14:28:46.795Z,23.67
2018-04-10T14:31:15.178Z,23.79
2018-04-10T14:33:43.512Z,23.76
2018-04-10T14:36:11.897Z,23.83
2018-04-10T14:38:40.212Z,23.84
2018-04-10T14:41:08.569Z,23.85
2018-04-10T14:43:36.904Z,23.87
2018-04-10T14:46:05.251Z,23.87
2018-04-10T14:48:33.734Z,23.83
2018-04-10T14:51:02.072Z,23.86
2018-04-10T14:53:30.424Z,23.90
2018-04-10T14:55:58.752Z,23.94
2018-04-10T14:58:27.096Z,23.92
2018-04-10T15:00:55.436Z,23.92
2018-04-10T15:03:23.760Z,23.98
2018-04-10T15:05:52.123Z,23.94
2018-04-10T15:08:20.455Z,23.91
2018-04-10T15:10:48.949Z,23.87
2018-04-10T15:13:17.268Z,23.89
2018-04-10T15:15:45.924Z,23.86
2018-04-10T15:18:14.256Z,23.81
2018-04-10T15:20:42.796Z,23.80
2018-04-10T15:23:11.124Z,23.80
2018-04-10T15:25:39.471Z,23.82
2018-04-10T15:28:07.828Z,23.81
2018-04-10T15:30:36.185Z,23.87
2018-04-10T15:33:04.517Z,23.78
2018-04-10T15:35:33.663Z,23.80
2018-04-10T15:38:02.017Z,23.80
2018-04-10T15:40:30.372Z,23.78
2018-04-10T15:42:58.724Z,23.72
2018-04-10T15:45:27.057Z,23.77
2018-04-10T15:47:55.404Z,23.69
2018-04-10T15:50:23.779Z,23.67
2018-04-10T15:52:52.132Z,23.68
2018-04-10T15:55:21.376Z,23.65
2018-04-10T15:57:49.932Z,23.65
2018-04-10T16:00:18.269Z,23.59
2018-04-10T16:02:46.624Z,23.54
2018-04-10T16:05:14.952Z,23.55
2018-04-10T16:07:43.304Z,23.56
2018-04-10T16:10:11.633Z,23.56
2018-04-10T16:12:40.936Z,23.56
2018-04-10T16:15:09.261Z,23.57
2018-04-10T16:17:37.615Z,23.55
2018-04-10T16:20:05.944Z,23.55
2018-04-10T16:22:34.297Z,23.50
2018-04-10T16:25:02.629Z,23.47
2018-04-10T16:27:30.977Z,23.41
2018-04-10T16:29:59.308Z,23.35
2018-04-10T16:32:27.669Z,23.42
2018-04-10T16:34:55.999Z,23.32
2018-04-10T16:37:24.343Z,23.33
2018-04-10T16:39:52.674Z,23.28
2018-04-10T16:42:21.025Z,23.30
2018-04-10T16:44:49.356Z,23.36
2018-04-10T16:47:17.728Z,23.28
2018-04-10T16:49:46.040Z,23.28
2018-04-10T16:52:14.396Z,23.25
2018-04-10T16:54:43.656Z,23.21
2018-04-10T16:57:12.011Z,23.17
2018-04-10T16:59:40.340Z,23.11
2018-04-10T17:02:08.700Z,23.06
2018-04-10T17:04:37.032Z,23.02
2018-04-10T17:07:06.304Z,22.99
2018-04-10T17:09:34.636Z,23.00
2018-04-10T17:12:03.023Z,22.99
2018-04-10T17:14:31.348Z,22.97
2018-04-10T17:16:59.701Z,22.96
2018-04-10T17:19:28.036Z,22.93
2018-04-10T17:21:56.395Z,22.91
2018-04-10T17:24:24.723Z,22.84
2018-04-10T17:26:53.068Z,22.72
2018-04-10T17:29:21.400Z,22.70
2018-04-10T17:31:49.773Z,22.73
2018-04-10T17:34:19.125Z,22.70
2018-04-10T17:36:47.505Z,22.67
2018-04-10T17:39:15.828Z,22.63
2018-04-10T17:41:44.163Z,22.55
2018-04-10T17:44:12.513Z,22.46
2018-04-10T17:46:40.839Z,22.39
2018-04-10T17:49:09.195Z,22.39
2018-04-10T17:51:37.529Z,22.35
2018-04-10T17:54:06.781Z,22.29
2018-04-10T17:56:36.075Z,22.24
2018-04-10T17:59:04.429Z,22.15
2018-04-10T18:01:32.763Z,22.01
2018-04-10T18:04:01.120Z,21.94
2018-04-10T18:06:30.413Z,21.89
2018-04-10T18:08:58.761Z,21.83
2018-04-10T18:11:27.087Z,21.79
2018-04-10T18:13:55.444Z,21.78
2018-04-10T18:16:24.736Z,21.72
2018-04-10T18:18:53.128Z,21.65
2018-04-10T18:21:21.460Z,21.63
2018-04-10T18:23:49.819Z,21.55
2018-04-10T18:26:18.416Z,21.47
2018-04-10T18:28:46.744Z,21.39
2018-04-10T18:31:15.071Z,21.40
2018-04-10T18:33:43.425Z,21.38
2018-04-10T18:36:11.774Z,21.36
2018-04-10T18:38:40.121Z,21.33
2018-04-10T18:41:08.444Z,21.24
2018-04-10T18:43:36.803Z,21.20
2018-04-10T18:46:05.124Z,21.14
2018-04-10T18:48:33.473Z,21.07
2018-04-10T18:51:01.809Z,21.05
2018-04-10T18:53:30.152Z,20.98
2018-04-10T18:55:58.481Z,20.88
2018-04-10T18:58:26.835Z,20.83
2018-04-10T19:00:55.164Z,20.77
2018-04-10T19:03:23.538Z,20.70
2018-04-10T19:05:51.869Z,20.66
2018-04-10T19:08:20.220Z,20.58
2018-04-10T19:10:48.552Z,20.55
2018-04-10T19:13:17.316Z,20.48
2018-04-10T19:15:45.647Z,20.46
2018-04-10T19:18:14.005Z,20.38
2018-04-10T19:20:42.328Z,20.38
2018-04-10T19:23:10.724Z,20.37
2018-04-10T19:25:39.178Z,20.23
2018-04-10T19:28:07.492Z,20.18
2018-04-10T19:30:35.844Z,20.10
2018-04-10T19:33:04.171Z,20.01
2018-04-10T19:35:32.529Z,19.90
2018-04-10T19:38:00.868Z,19.87
2018-04-10T19:40:29.219Z,19.74
2018-04-10T19:42:57.543Z,19.62
2018-04-10T19:45:26.158Z,19.53
2018-04-10T19:47:54.491Z,19.43
2018-04-10T19:50:22.884Z,19.34
2018-04-10T19:52:51.562Z,19.29
2018-04-10T19:55:19.901Z,19.28
2018-04-10T19:57:48.234Z,19.19
2018-04-10T20:00:16.598Z,19.13
2018-04-10T20:02:44.923Z,19.13
2018-04-10T20:05:13.276Z,19.09
2018-04-10T20:07:41.603Z,19.04
2018-04-10T20:10:09.952Z,18.97
2018-04-10T20:12:38.276Z,18.91
2018-04-10T20:15:06.627Z,18.81
2018-04-10T20:17:34.961Z,18.72
2018-04-10T20:20:03.307Z,18.69
2018-04-10T20:22:31.636Z,18.62
2018-04-10T20:24:59.984Z,18.57
2018-04-10T20:27:28.309Z,18.37
2018-04-10T20:29:56.662Z,18.25
2018-04-10T20:32:24.988Z,18.13
2018-04-10T20:34:53.332Z,18.07
2018-04-10T20:37:21.660Z,18.02
2018-04-10T20:39:50.016Z,17.95
2018-04-10T20:42:18.336Z,17.88
2018-04-10T20:44:46.691Z,17.80
2018-04-10T20:47:15.111Z,17.67
2018-04-10T20:49:43.448Z,17.62
2018-04-10T20:52:11.771Z,17.52
2018-04-10T20:54:40.168Z,17.46
2018-04-10T20:57:08.496Z,17.37
2018-04-10T20:59:36.818Z,17.26
2018-04-10T21:02:05.165Z,17.22
2018-04-10T21:04:33.488Z,17.13
2018-04-10T21:07:01.835Z,17.10
2018-04-10T21:09:30.160Z,17.04
2018-04-10T21:11:58.578Z,16.98
2018-04-10T21:14:26.893Z,16.89
2018-04-10T21:16:55.239Z,16.74
2018-04-10T21:19:23.564Z,16.63
2018-04-10T21:21:51.907Z,16.49
2018-04-10T21:24:20.231Z,16.40
2018-04-10T21:26:48.575Z,16.31
2018-04-10T21:29:16.900Z,16.19
2018-04-10T21:31:45.287Z,16.04
2018-04-10T21:34:13.600Z,15.91
2018-04-10T21:36:41.944Z,15.86
2018-04-10T21:39:10.270Z,15.78
2018-04-10T21:41:38.619Z,15.71
2018-04-10T21:44:06.944Z,15.60
2018-04-10T21:46:35.296Z,15.52
2018-04-10T21:49:03.635Z,15.48
2018-04-10T21:51:31.988Z,15.40
2018-04-10T21:54:00.364Z,15.38
2018-04-10T21:56:28.716Z,15.30
2018-04-10T21:58:57.048Z,15.25
2018-04-10T22:01:25.404Z,15.14
2018-04-10T22:03:53.737Z,15.04
2018-04-10T22:06:22.100Z,14.98
2018-04-10T22:08:50.468Z,14.85
2018-04-10T22:11:18.789Z,14.82
2018-04-10T22:13:47.120Z,14.75
2018-04-10T22:16:15.471Z,14.65
2018-04-10T22:18:43.805Z,14.59
2018-04-10T22:21:12.152Z,14.48
2018-04-10T22:23:40.492Z,14.43
2018-04-10T22:26:08.860Z,14.28
2018-04-10T22:28:37.209Z,14.18
2018-04-10T22:31:05.560Z,14.04
2018-04-10T22:33:33.872Z,13.91
2018-04-10T22:36:02.228Z,13.84
2018-04-10T22:38:30.569Z,13.77
2018-04-10T22:40:58.998Z,13.74
2018-04-10T22:43:27.320Z,13.71
2018-04-10T22:45:55.720Z,13.69
2018-04-10T22:48:24.025Z,13.68
2018-04-10T22:50:52.388Z,13.63
2018-04-10T22:53:20.755Z,13.54
2018-04-10T22:55:49.113Z,13.45
2018-04-10T22:58:17.460Z,13.34
2018-04-10T23:00:52.470Z,13.20
2018-04-10T23:03:20.806Z,13.18
2018-04-10T23:05:49.157Z,13.20
2018-04-10T23:08:17.523Z,13.19
2018-04-10T23:10:45.873Z,13.16
2018-04-10T23:13:14.237Z,13.13
2018-04-10T23:15:42.576Z,13.06
2018-04-10T23:18:10.940Z,13.04
2018-04-10T23:20:39.286Z,13.00
2018-04-10T23:23:07.644Z,12.93
2018-04-10T23:25:35.993Z,12.73
2018-04-10T23:28:04.353Z,12.60
2018-04-10T23:30:32.700Z,12.52
2018-04-10T23:33:01.064Z,12.42
2018-04-10T23:35:29.414Z,12.36
2018-04-10T23:37:57.774Z,12.32
2018-04-10T23:40:26.115Z,12.27
2018-04-10T23:42:54.472Z,12.26
2018-04-10T23:45:22.813Z,12.21
2018-04-10T23:47:51.177Z,12.21
2018-04-10T23:50:19.519Z,12.22
2018-04-10T23:52:47.873Z,12.21
2018-04-10T23:55:16.208Z,12.14
2018-04-10T23:57:44.570Z,12.11
